createdAt,value
2019-03-22T00:00:22.447Z,9.85
2019-03-22T00:02:51.014Z,11.93
2019-03-22T00:05:19.559Z,11.75
2019-03-22T00:07:48.744Z,12.25
2019-03-22T00:10:17.485Z,11.73
2019-03-22T00:12:46.036Z,12.28
2019-03-22T00:15:15.478Z,12.55
2019-03-22T00:17:44.120Z,11.20
2019-03-22T00:20:12.802Z,11.08
2019-03-22T00:22:41.358Z,11.40
2019-03-22T00:25:10.064Z,9.40
2019-03-22T00:27:38.680Z,12.23
2019-03-22T00:30:08.867Z,11.03
2019-03-22T00:32:37.507Z,10.15
2019-03-22T00:35:07.768Z,10.43
2019-03-22T00:37:36.310Z,8.85
2019-03-22T00:40:28.905Z,8.90
2019-03-22T00:42:57.446Z,10.63
2019-03-22T00:45:25.999Z,11.12
2019-03-22T00:47:54.907Z,12.70
2019-03-22T00:50:23.592Z,11.18
2019-03-22T00:52:52.168Z,12.37
2019-03-22T00:55:20.960Z,12.25
2019-03-22T00:57:49.850Z,11.43
2019-03-22T01:00:18.501Z,11.85
2019-03-22T01:02:47.216Z,13.22
2019-03-22T01:05:16.549Z,12.43
2019-03-22T01:07:45.164Z,12.98
2019-03-22T01:10:14.549Z,11.55
2019-03-22T01:12:43.251Z,13.53
2019-03-22T01:15:14.504Z,11.70
2019-03-22T01:17:43.328Z,12.85
2019-03-22T01:20:12.910Z,11.48
2019-03-22T01:22:41.516Z,10.45
2019-03-22T01:25:11.314Z,12.90
2019-03-22T01:27:41.320Z,12.47
2019-03-22T01:30:15.178Z,10.58
2019-03-22T01:32:44.036Z,11.18
2019-03-22T01:35:12.814Z,11.22
2019-03-22T01:37:41.366Z,11.33
2019-03-22T01:40:30.878Z,12.80
2019-03-22T01:42:59.570Z,14.00
2019-03-22T01:45:28.220Z,12.82
2019-03-22T01:47:57.135Z,13.13
2019-03-22T01:50:26.031Z,12.73
2019-03-22T01:52:54.672Z,10.50
2019-03-22T01:55:23.289Z,11.25
2019-03-22T01:57:53.514Z,11.18
2019-03-22T02:00:22.352Z,10.70
2019-03-22T02:02:50.870Z,11.93
2019-03-22T02:05:19.671Z,11.05
2019-03-22T02:07:48.325Z,11.78
2019-03-22T02:10:17.496Z,13.70
2019-03-22T02:12:46.119Z,15.03
2019-03-22T02:15:17.536Z,13.20
2019-03-22T02:17:46.149Z,12.25
2019-03-22T02:20:17.312Z,13.55
2019-03-22T02:22:46.006Z,12.75
2019-03-22T02:25:35.688Z,12.07
2019-03-22T02:28:04.668Z,11.95
2019-03-22T02:30:33.404Z,11.30
2019-03-22T02:33:01.987Z,11.50
2019-03-22T02:35:30.529Z,13.48
2019-03-22T02:37:59.067Z,12.30
2019-03-22T02:40:27.712Z,12.80
2019-03-22T02:42:56.335Z,12.25
2019-03-22T02:45:24.891Z,14.78
2019-03-22T02:47:53.456Z,13.30
2019-03-22T02:50:22.423Z,12.07
2019-03-22T02:52:52.199Z,12.47
2019-03-22T02:55:20.744Z,11.50
2019-03-22T02:57:49.284Z,11.73
2019-03-22T03:00:19.023Z,14.53
2019-03-22T03:02:47.625Z,12.43
2019-03-22T03:05:16.701Z,12.47
2019-03-22T03:07:46.277Z,12.80
2019-03-22T03:10:34.275Z,13.05
2019-03-22T03:15:30.661Z,12.03
2019-03-22T03:17:59.231Z,14.07
2019-03-22T03:20:27.798Z,15.03
2019-03-22T03:22:56.412Z,13.10
2019-03-22T03:25:24.967Z,12.15
2019-03-22T03:27:53.799Z,13.93
2019-03-22T03:30:22.620Z,12.85
2019-03-22T03:32:51.173Z,12.98
2019-03-22T03:35:19.957Z,12.13
2019-03-22T03:37:48.688Z,13.83
2019-03-22T03:40:17.377Z,12.05
2019-03-22T03:42:46.059Z,10.78
2019-03-22T03:45:29.479Z,13.03
2019-03-22T03:47:59.352Z,13.85
2019-03-22T03:50:27.967Z,14.87
2019-03-22T03:52:56.612Z,15.13
2019-03-22T03:55:25.159Z,14.60
2019-03-22T03:57:53.719Z,15.05
2019-03-22T04:00:22.292Z,15.10
2019-03-22T04:02:50.911Z,13.95
2019-03-22T04:05:19.741Z,14.50
2019-03-22T04:07:48.332Z,12.82
2019-03-22T04:10:16.945Z,12.47
2019-03-22T04:12:45.547Z,11.53
2019-03-22T04:15:14.516Z,11.88
2019-03-22T04:17:43.049Z,13.35
2019-03-22T04:20:11.847Z,11.95
2019-03-22T04:22:40.532Z,12.07
2019-03-22T04:27:58.472Z,14.43
2019-03-22T04:30:27.011Z,15.03
2019-03-22T04:32:55.551Z,15.30
2019-03-22T04:35:24.130Z,13.98
2019-03-22T04:37:52.671Z,12.18
2019-03-22T04:40:25.862Z,13.28
2019-03-22T04:42:54.901Z,12.63
2019-03-22T04:45:25.717Z,11.75
2019-03-22T04:48:15.407Z,11.43
2019-03-22T04:50:46.194Z,12.28
2019-03-22T04:53:27.748Z,13.18
2019-03-22T04:55:59.355Z,12.70
2019-03-22T04:58:30.214Z,14.70
2019-03-22T05:01:19.637Z,13.10
2019-03-22T05:03:48.643Z,11.10
2019-03-22T05:06:19.035Z,12.03
2019-03-22T05:08:49.626Z,10.75
2019-03-22T05:11:21.165Z,13.03
2019-03-22T05:13:52.776Z,11.90
2019-03-22T05:16:42.225Z,12.50
2019-03-22T05:19:12.361Z,11.48
2019-03-22T05:22:01.821Z,11.40
2019-03-22T05:24:32.634Z,14.60
2019-03-22T05:27:01.945Z,16.12
2019-03-22T05:29:51.362Z,14.63
2019-03-22T05:32:19.991Z,12.88
2019-03-22T05:34:48.643Z,13.65
2019-03-22T05:37:17.218Z,11.93
2019-03-22T05:39:45.751Z,12.78
2019-03-22T05:42:14.298Z,13.95
2019-03-22T05:45:02.255Z,15.10
2019-03-22T05:49:58.820Z,13.50
2019-03-22T05:52:27.397Z,13.18
2019-03-22T05:54:55.931Z,11.12
2019-03-22T05:57:24.419Z,15.50
2019-03-22T05:59:53.248Z,15.63
2019-03-22T06:02:22.130Z,15.32
2019-03-22T06:04:50.678Z,14.25
2019-03-22T06:07:19.257Z,14.78
2019-03-22T06:09:47.796Z,14.40
2019-03-22T06:12:16.341Z,14.78
2019-03-22T06:14:45.557Z,12.98
2019-03-22T06:17:14.064Z,12.65
2019-03-22T06:19:42.928Z,13.32
2019-03-22T06:22:11.738Z,14.93
2019-03-22T06:24:40.730Z,14.33
2019-03-22T06:27:09.453Z,15.00
2019-03-22T06:29:38.097Z,13.60
2019-03-22T06:32:06.750Z,14.13
2019-03-22T06:34:35.316Z,14.15
2019-03-22T06:37:04.957Z,14.43
2019-03-22T06:39:33.539Z,14.13
2019-03-22T06:42:03.148Z,15.90
2019-03-22T06:44:31.847Z,17.25
2019-03-22T06:47:00.464Z,16.42
2019-03-22T06:49:29.302Z,16.45
2019-03-22T06:51:58.291Z,16.77
2019-03-22T06:54:31.812Z,16.42
2019-03-22T06:56:57.086Z,15.28
2019-03-22T06:59:25.984Z,14.95
2019-03-22T07:01:54.630Z,15.32
2019-03-22T07:04:23.397Z,14.73
2019-03-22T07:06:52.031Z,14.65
2019-03-22T07:09:20.603Z,13.88
2019-03-22T07:11:49.221Z,15.18
2019-03-22T07:14:17.794Z,15.00
2019-03-22T07:16:46.411Z,15.75
2019-03-22T07:19:14.878Z,14.18
2019-03-22T07:21:43.531Z,14.45
2019-03-22T07:24:12.159Z,14.75
2019-03-22T07:26:40.784Z,13.95
2019-03-22T07:29:09.360Z,14.10
2019-03-22T07:31:38.174Z,14.98
2019-03-22T07:34:06.722Z,14.45
2019-03-22T07:36:35.218Z,14.80
2019-03-22T07:39:05.323Z,12.75
2019-03-22T07:41:33.867Z,14.05
2019-03-22T07:44:02.535Z,13.83
2019-03-22T07:46:31.075Z,13.38
2019-03-22T07:48:59.626Z,12.60
2019-03-22T07:51:28.211Z,11.65
2019-03-22T07:53:56.797Z,13.08
2019-03-22T07:56:25.355Z,12.50
2019-03-22T07:58:53.932Z,12.20
2019-03-22T08:01:22.554Z,12.25
2019-03-22T08:03:51.387Z,12.23
2019-03-22T08:06:20.379Z,11.73
2019-03-22T08:08:49.285Z,12.18
2019-03-22T08:11:17.901Z,13.50
2019-03-22T08:13:46.415Z,15.98
2019-03-22T08:16:15.128Z,19.02
2019-03-22T08:18:43.698Z,21.17
2019-03-22T08:21:12.244Z,19.87
2019-03-22T08:23:41.109Z,18.15
2019-03-22T08:26:09.650Z,16.20
2019-03-22T08:28:38.227Z,17.55
2019-03-22T08:31:06.871Z,13.48
2019-03-22T08:33:35.437Z,14.60
2019-03-22T08:36:05.335Z,16.10
2019-03-22T08:38:33.926Z,12.00
2019-03-22T08:41:02.496Z,13.13
2019-03-22T08:43:31.049Z,12.73
2019-03-22T08:45:59.797Z,12.40
2019-03-22T08:48:28.356Z,11.03
2019-03-22T08:50:56.891Z,11.73
2019-03-22T08:53:25.802Z,17.75
2019-03-22T08:55:54.395Z,13.22
2019-03-22T08:58:22.956Z,13.38
2019-03-22T09:00:57.348Z,11.05
2019-03-22T09:03:21.862Z,10.93
2019-03-22T09:05:50.394Z,10.30
2019-03-22T09:08:18.932Z,10.63
2019-03-22T09:10:47.583Z,9.18
2019-03-22T09:13:16.149Z,10.25
2019-03-22T09:15:44.774Z,10.48
2019-03-22T09:18:15.534Z,10.75
2019-03-22T09:20:43.899Z,11.03
2019-03-22T09:23:12.459Z,10.55
2019-03-22T09:25:41.042Z,11.18
2019-03-22T09:28:10.485Z,11.38
2019-03-22T09:30:39.246Z,15.05
2019-03-22T09:33:07.814Z,14.03
2019-03-22T09:35:36.443Z,16.73
2019-03-22T09:38:12.702Z,18.98
2019-03-22T09:40:35.292Z,17.23
2019-03-22T09:43:04.456Z,16.70
2019-03-22T09:45:33.099Z,14.98
2019-03-22T09:48:01.681Z,14.70
2019-03-22T09:50:30.278Z,14.98
2019-03-22T09:52:58.789Z,14.65
2019-03-22T09:55:27.369Z,15.25
2019-03-22T09:57:55.922Z,14.40
2019-03-22T10:00:32.367Z,14.35
2019-03-22T10:03:01.837Z,14.70
2019-03-22T10:05:30.679Z,14.93
2019-03-22T10:07:59.334Z,14.03
2019-03-22T10:10:28.246Z,13.68
2019-03-22T10:12:57.019Z,14.40
2019-03-22T10:15:26.238Z,13.93
2019-03-22T10:17:54.843Z,13.80
2019-03-22T10:20:23.351Z,13.68
2019-03-22T10:22:52.303Z,13.45
2019-03-22T10:25:20.944Z,11.63
2019-03-22T10:27:49.672Z,11.97
2019-03-22T10:30:19.124Z,11.15
2019-03-22T10:32:47.994Z,10.10
2019-03-22T10:35:26.080Z,11.35
2019-03-22T10:37:46.894Z,11.65
2019-03-22T10:40:15.679Z,11.30
2019-03-22T10:42:44.268Z,10.75
2019-03-22T10:45:12.952Z,10.53
2019-03-22T10:47:41.548Z,10.95
2019-03-22T10:50:10.628Z,10.43
2019-03-22T10:52:39.211Z,10.75
2019-03-22T10:55:28.519Z,9.93
2019-03-22T10:57:40.287Z,10.45
2019-03-22T11:00:14.419Z,10.28
2019-03-22T11:02:43.058Z,9.78
2019-03-22T11:05:13.656Z,8.85
2019-03-22T11:07:42.217Z,9.08
2019-03-22T11:10:13.666Z,8.18
2019-03-22T11:12:42.434Z,8.78
2019-03-22T11:15:13.150Z,9.35
2019-03-22T11:17:42.095Z,7.47
2019-03-22T11:20:16.803Z,7.83
2019-03-22T11:22:45.536Z,8.33
2019-03-22T11:25:14.803Z,8.58
2019-03-22T11:27:43.385Z,8.83
2019-03-22T11:30:32.802Z,7.62
2019-03-22T11:33:01.378Z,7.72
2019-03-22T11:35:29.998Z,8.23
2019-03-22T11:37:58.921Z,8.18
2019-03-22T11:40:27.627Z,7.22
2019-03-22T11:42:56.250Z,7.37
2019-03-22T11:45:24.955Z,6.58
2019-03-22T11:47:53.668Z,7.03
2019-03-22T11:50:22.467Z,6.87
2019-03-22T11:52:51.218Z,8.40
2019-03-22T11:55:21.845Z,7.75
2019-03-22T11:57:50.419Z,7.28
2019-03-22T12:00:26.644Z,6.85
2019-03-22T12:02:55.223Z,7.22
2019-03-22T12:05:24.617Z,5.85
2019-03-22T12:07:54.723Z,6.78
2019-03-22T12:10:23.706Z,7.37
2019-03-22T12:12:52.247Z,6.47
2019-03-22T12:15:24.557Z,6.20
2019-03-22T12:17:53.244Z,6.65
2019-03-22T12:20:23.934Z,5.15
2019-03-22T12:22:53.378Z,5.40
2019-03-22T12:25:26.064Z,4.85
2019-03-22T12:27:54.947Z,5.00
2019-03-22T12:30:23.618Z,4.60
2019-03-22T12:32:52.301Z,5.25
2019-03-22T12:35:22.337Z,5.45
2019-03-22T12:37:51.227Z,4.50
2019-03-22T12:40:21.630Z,4.65
2019-03-22T12:42:50.515Z,4.92
2019-03-22T12:45:42.943Z,4.33
2019-03-22T12:48:11.479Z,4.15
2019-03-22T12:50:40.676Z,4.42
2019-03-22T12:53:09.246Z,4.50
2019-03-22T12:55:37.787Z,4.60
2019-03-22T12:58:06.816Z,4.58
2019-03-22T13:00:35.355Z,4.12
2019-03-22T13:03:04.388Z,4.08
2019-03-22T13:05:33.379Z,3.05
2019-03-22T13:08:01.920Z,3.27
2019-03-22T13:10:30.563Z,3.50
2019-03-22T13:12:59.100Z,3.15
2019-03-22T13:15:27.912Z,3.02
2019-03-22T13:17:56.803Z,2.67
2019-03-22T13:20:25.427Z,3.10
2019-03-22T13:22:55.361Z,2.92
2019-03-22T13:25:23.996Z,3.17
2019-03-22T13:27:52.546Z,3.17
2019-03-22T13:30:48.144Z,2.80
2019-03-22T13:33:16.708Z,2.98
2019-03-22T13:35:48.048Z,2.83
2019-03-22T13:38:16.587Z,2.62
2019-03-22T13:40:46.772Z,2.27
2019-03-22T13:43:15.807Z,2.72
2019-03-22T13:45:44.418Z,2.87
2019-03-22T13:48:12.989Z,3.00
2019-03-22T13:50:41.655Z,2.52
2019-03-22T13:53:10.220Z,2.40
2019-03-22T13:55:38.768Z,2.70
2019-03-22T13:58:07.327Z,2.90
2019-03-22T14:00:36.020Z,2.20
2019-03-22T14:03:04.597Z,2.30
2019-03-22T14:05:33.144Z,2.72
2019-03-22T14:08:02.283Z,2.83
2019-03-22T14:10:32.958Z,2.22
2019-03-22T14:13:02.827Z,1.80
2019-03-22T14:15:31.422Z,1.77
2019-03-22T14:18:00.744Z,2.50
2019-03-22T14:20:30.351Z,2.55
2019-03-22T14:22:59.272Z,2.50
2019-03-22T14:25:27.932Z,2.10
2019-03-22T14:27:56.485Z,2.00
2019-03-22T14:30:25.183Z,2.10
2019-03-22T14:32:54.472Z,2.17
2019-03-22T14:35:23.011Z,1.55
2019-03-22T14:37:51.901Z,1.80
2019-03-22T14:40:20.782Z,2.08
2019-03-22T14:42:49.341Z,2.40
2019-03-22T14:45:18.335Z,1.72
2019-03-22T14:48:00.114Z,2.10
2019-03-22T14:50:28.770Z,2.35
2019-03-22T14:52:57.303Z,2.17
2019-03-22T14:55:25.846Z,2.37
2019-03-22T14:57:54.434Z,2.47
2019-03-22T15:00:22.993Z,2.87
2019-03-22T15:02:51.546Z,2.67
2019-03-22T15:05:20.539Z,2.45
2019-03-22T15:07:49.090Z,2.40
2019-03-22T15:10:18.118Z,2.00
2019-03-22T15:12:47.002Z,2.10
2019-03-22T15:15:20.412Z,2.52
2019-03-22T15:18:09.084Z,2.15
2019-03-22T15:20:48.697Z,1.60
2019-03-22T15:23:35.203Z,2.25
2019-03-22T15:26:11.496Z,2.40
2019-03-22T15:28:47.185Z,2.10
2019-03-22T15:31:17.361Z,2.25
2019-03-22T15:34:04.658Z,2.37
2019-03-22T15:36:37.032Z,1.92
2019-03-22T15:39:12.203Z,2.08
2019-03-22T15:41:40.931Z,1.98
2019-03-22T15:44:09.662Z,2.10
2019-03-22T15:46:38.188Z,2.20
2019-03-22T15:49:07.434Z,1.87
2019-03-22T15:51:36.003Z,3.90
2019-03-22T15:54:05.085Z,3.20
2019-03-22T15:56:33.898Z,2.40
2019-03-22T15:59:02.445Z,2.22
2019-03-22T16:01:31.002Z,2.42
2019-03-22T16:03:59.648Z,2.50
2019-03-22T16:06:28.612Z,3.40
2019-03-22T16:08:57.191Z,3.80
2019-03-22T16:11:25.726Z,2.05
2019-03-22T16:13:54.570Z,2.62
2019-03-22T16:16:23.152Z,3.00
2019-03-22T16:18:51.702Z,2.72
2019-03-22T16:21:20.271Z,4.33
2019-03-22T16:23:48.820Z,4.20
2019-03-22T16:26:17.374Z,2.92
2019-03-22T16:28:45.955Z,3.35
2019-03-22T16:31:14.501Z,3.25
2019-03-22T16:33:43.082Z,3.33
2019-03-22T16:36:11.666Z,4.55
2019-03-22T16:38:40.230Z,4.67
2019-03-22T16:41:09.083Z,4.20
2019-03-22T16:43:37.659Z,3.98
2019-03-22T16:46:06.284Z,3.40
2019-03-22T16:48:34.929Z,3.33
2019-03-22T16:51:03.549Z,4.60
2019-03-22T16:53:32.166Z,6.22
2019-03-22T16:56:00.848Z,6.00
2019-03-22T16:58:29.473Z,4.55
2019-03-22T17:00:58.199Z,4.78
2019-03-22T17:03:27.142Z,5.37
2019-03-22T17:05:56.038Z,5.80
2019-03-22T17:08:25.032Z,9.13
2019-03-22T17:10:53.597Z,6.72
2019-03-22T17:13:22.160Z,4.28
2019-03-22T17:15:50.729Z,3.90
2019-03-22T17:18:19.339Z,3.20
2019-03-22T17:20:47.850Z,2.15
2019-03-22T17:23:16.395Z,2.70
2019-03-22T17:25:45.018Z,3.00
2019-03-22T17:28:13.996Z,2.47
2019-03-22T17:30:42.543Z,5.55
2019-03-22T17:33:11.097Z,4.72
2019-03-22T17:35:40.514Z,4.90
2019-03-22T17:38:09.139Z,5.30
2019-03-22T17:40:37.775Z,8.78
2019-03-22T17:43:06.405Z,7.45
2019-03-22T17:45:35.302Z,6.12
2019-03-22T17:48:03.991Z,6.92
2019-03-22T17:50:32.566Z,8.70
2019-03-22T17:53:01.124Z,7.60
2019-03-22T17:55:33.239Z,6.20
2019-03-22T17:58:03.048Z,4.83
2019-03-22T18:00:31.731Z,4.17
2019-03-22T18:03:00.368Z,4.30
2019-03-22T18:05:29.007Z,4.53
2019-03-22T18:07:57.621Z,4.78
2019-03-22T18:10:28.459Z,5.17
2019-03-22T18:12:57.048Z,5.05
2019-03-22T18:15:25.666Z,4.55
2019-03-22T18:17:54.560Z,3.58
2019-03-22T18:20:23.094Z,4.25
2019-03-22T18:22:51.684Z,4.33
2019-03-22T18:25:20.511Z,16.25
2019-03-22T18:27:49.149Z,14.53
2019-03-22T18:30:18.303Z,11.45
2019-03-22T18:32:47.183Z,6.70
2019-03-22T18:35:15.891Z,6.80
2019-03-22T18:37:45.373Z,5.70
2019-03-22T18:40:15.483Z,5.87
2019-03-22T18:42:44.098Z,4.90
2019-03-22T18:45:13.787Z,5.15
2019-03-22T18:47:43.409Z,4.47
2019-03-22T18:50:13.318Z,4.22
2019-03-22T18:52:41.901Z,4.92
2019-03-22T18:55:11.419Z,4.95
2019-03-22T18:57:40.038Z,4.33
2019-03-22T19:00:14.648Z,4.62
2019-03-22T19:02:43.347Z,4.50
2019-03-22T19:05:14.147Z,6.58
2019-03-22T19:07:55.157Z,6.17
2019-03-22T19:10:23.907Z,5.97
2019-03-22T19:12:53.832Z,5.62
2019-03-22T19:15:22.476Z,6.08
2019-03-22T19:17:51.026Z,6.45
2019-03-22T19:20:19.679Z,6.30
2019-03-22T19:22:48.558Z,6.22
2019-03-22T19:25:17.858Z,6.12
2019-03-22T19:27:46.567Z,6.97
2019-03-22T19:30:16.463Z,8.10
2019-03-22T19:32:45.077Z,8.48
2019-03-22T19:35:14.733Z,7.65
2019-03-22T19:37:43.738Z,8.00
2019-03-22T19:40:16.349Z,7.55
2019-03-22T19:42:45.396Z,7.45
2019-03-22T19:45:16.910Z,7.67
2019-03-22T19:47:45.622Z,8.58
2019-03-22T19:50:18.051Z,10.78
2019-03-22T19:52:47.302Z,10.55
2019-03-22T19:55:15.935Z,9.20
2019-03-22T19:57:44.502Z,9.00
2019-03-22T20:00:18.256Z,9.23
2019-03-22T20:02:49.108Z,9.88
2019-03-22T20:05:33.685Z,9.60
2019-03-22T20:08:02.500Z,9.28
2019-03-22T20:10:31.370Z,8.20
2019-03-22T20:13:00.140Z,8.48
2019-03-22T20:15:30.146Z,7.35
2019-03-22T20:17:58.923Z,8.98
2019-03-22T20:20:27.816Z,6.95
2019-03-22T20:22:56.395Z,8.13
2019-03-22T20:25:25.257Z,10.03
2019-03-22T20:27:53.865Z,8.10
2019-03-22T20:30:22.866Z,8.75
2019-03-22T20:32:51.486Z,7.60
2019-03-22T20:35:20.063Z,8.08
2019-03-22T20:37:48.968Z,7.28
2019-03-22T20:40:21.095Z,6.85
2019-03-22T20:42:50.012Z,6.90
2019-03-22T20:45:24.064Z,7.30
2019-03-22T20:47:50.035Z,6.92
2019-03-22T20:50:19.037Z,8.95
2019-03-22T20:52:47.556Z,6.85
2019-03-22T20:55:17.093Z,8.13
2019-03-22T20:57:46.391Z,9.08
2019-03-22T21:00:17.997Z,8.08
2019-03-22T21:02:47.230Z,8.55
2019-03-22T21:05:26.077Z,8.45
2019-03-22T21:07:46.962Z,7.20
2019-03-22T21:10:15.681Z,7.97
2019-03-22T21:12:45.002Z,7.35
2019-03-22T21:15:23.869Z,7.37
2019-03-22T21:17:45.567Z,7.78
2019-03-22T21:20:15.827Z,7.92
2019-03-22T21:22:44.778Z,7.22
2019-03-22T21:25:13.828Z,7.67
2019-03-22T21:27:42.554Z,7.33
2019-03-22T21:30:15.687Z,7.03
2019-03-22T21:32:45.934Z,8.03
2019-03-22T21:35:22.488Z,7.12
2019-03-22T21:37:45.110Z,8.05
2019-03-22T21:40:13.801Z,6.80
2019-03-22T21:42:42.706Z,6.47
2019-03-22T21:45:12.296Z,7.22
2019-03-22T21:47:40.857Z,7.10
2019-03-22T21:50:10.487Z,7.22
2019-03-22T21:52:39.122Z,7.03
2019-03-22T21:55:10.708Z,6.20
2019-03-22T21:57:39.257Z,6.20
2019-03-22T22:00:12.722Z,6.28
2019-03-22T22:02:41.464Z,7.50
2019-03-22T22:05:10.234Z,8.18
2019-03-22T22:07:39.186Z,9.50
2019-03-22T22:10:09.091Z,9.15
2019-03-22T22:12:37.892Z,7.85
2019-03-22T22:15:11.571Z,8.33
2019-03-22T22:17:41.288Z,7.03
2019-03-22T22:20:10.486Z,6.58
2019-03-22T22:22:39.185Z,7.55
2019-03-22T22:25:08.422Z,7.03
2019-03-22T22:27:37.367Z,8.60
2019-03-22T22:30:13.211Z,7.28
2019-03-22T22:32:41.912Z,7.45
2019-03-22T22:35:10.732Z,8.65
2019-03-22T22:37:39.595Z,8.43
2019-03-22T22:40:12.386Z,8.50
2019-03-22T22:42:40.938Z,9.80
2019-03-22T23:52:13.604Z,9.43
2019-03-22T23:54:48.730Z,8.33
